createdAt,value
2023-01-25T01:36:16.407Z,81.67
2023-01-25T01:47:02.152Z,81.21
2023-01-25T01:52:04.554Z,80.04
2023-01-25T01:57:02.659Z,79.41
2023-01-25T02:02:05.821Z,79.65
2023-01-25T02:07:05.007Z,79.34
2023-01-25T02:14:47.419Z,79.90
2023-01-25T02:19:47.722Z,81.67
2023-01-25T02:24:52.847Z,80.94
2023-01-25T02:31:54.621Z,80.28
2023-01-25T02:44:16.937Z,80.80
2023-01-25T02:49:15.978Z,79.61
2023-01-25T02:54:17.080Z,79.41
2023-01-25T02:59:16.347Z,79.10
2023-01-25T03:04:15.454Z,78.55
2023-01-25T03:09:22.203Z,78.20
2023-01-25T03:14:24.751Z,78.61
2023-01-25T03:32:35.548Z,78.75
2023-01-25T03:37:35.247Z,78.51
2023-01-25T03:42:35.161Z,77.78
2023-01-25T03:47:35.178Z,77.51
2023-01-25T03:52:35.033Z,77.30
2023-01-25T03:57:34.921Z,77.61
2023-01-25T04:02:35.084Z,78.37
2023-01-25T04:07:34.886Z,77.82
2023-01-25T04:12:34.898Z,76.85
2023-01-25T04:17:34.733Z,76.85
2023-01-25T04:22:37.551Z,76.95
2023-01-25T04:27:34.618Z,78.47
2023-01-25T04:32:34.802Z,77.09
2023-01-25T04:40:38.659Z,76.23
2023-01-25T04:52:38.800Z,77.12
2023-01-25T04:57:38.376Z,77.54
2023-01-25T05:50:39.174Z,77.75
2023-01-25T07:06:53.445Z,77.95
2023-01-25T07:11:51.698Z,78.03
2023-01-25T07:16:51.432Z,77.58
2023-01-25T07:21:51.214Z,77.16
2023-01-25T07:26:51.209Z,77.51
2023-01-25T07:54:26.973Z,77.99
2023-01-25T07:59:26.504Z,76.54
2023-01-25T08:04:26.586Z,76.71
2023-01-25T08:09:26.415Z,76.67
2023-01-25T08:14:26.475Z,76.26
2023-01-25T08:21:44.177Z,75.43
2023-01-25T08:26:44.003Z,75.43
2023-01-25T08:31:52.059Z,75.12
2023-01-25T08:36:43.841Z,74.84
2023-01-25T08:41:43.686Z,74.63
2023-01-25T08:46:43.672Z,74.46
2023-01-25T08:51:43.568Z,74.67
2023-01-25T08:56:43.466Z,74.46
2023-01-25T09:01:44.261Z,74.01
2023-01-25T09:31:46.609Z,72.50
2023-01-25T09:36:46.128Z,72.08
2023-01-25T09:41:46.187Z,71.63
2023-01-25T09:46:46.125Z,71.53
2023-01-25T09:59:56.917Z,74.98
2023-01-25T10:05:03.140Z,72.71
2023-01-25T15:24:58.532Z,72.67
2023-01-25T15:29:55.223Z,72.46
2023-01-25T16:52:25.166Z,73.88
2023-01-25T16:57:22.128Z,72.60
2023-01-25T17:02:22.080Z,72.49
2023-01-25T17:09:22.943Z,74.08
2023-01-25T17:15:52.515Z,75.43
2023-01-25T17:44:56.758Z,72.70
2023-01-25T17:49:56.187Z,72.49
2023-01-25T18:04:47.530Z,73.46
2023-01-25T18:09:49.531Z,72.70
2023-01-25T18:41:24.840Z,71.97
2023-01-25T18:46:24.259Z,71.73
2023-01-25T18:51:30.863Z,70.87
2023-01-25T18:56:23.814Z,71.63
2023-01-25T19:01:23.707Z,72.36
2023-01-25T19:43:28.439Z,74.40
2023-01-25T19:52:14.595Z,75.74
2023-01-25T19:59:09.975Z,75.64
2023-01-25T20:07:33.567Z,75.88
2023-01-25T20:14:07.645Z,74.80
2023-01-25T20:19:15.055Z,74.01
2023-01-25T20:42:00.344Z,74.29
2023-01-25T20:50:52.778Z,73.22
2023-01-25T21:42:08.014Z,73.94
2023-01-25T21:47:28.727Z,74.57
2023-01-25T21:52:09.418Z,73.22
2023-01-25T21:57:07.780Z,73.91
2023-01-25T22:02:07.677Z,75.32
2023-01-25T22:07:07.733Z,75.01
2023-01-25T23:02:06.732Z,73.39
2023-01-25T23:29:05.119Z,79.60
2023-01-25T23:57:01.137Z,80.71
